createdAt,value
2022-08-09T12:31:58.739Z,102707.97
2022-08-09T12:37:53.855Z,102707.31
2022-08-09T12:44:05.958Z,102714.22
2022-08-09T12:50:19.558Z,102705.31
2022-08-09T12:56:39.498Z,102701.56
2022-08-09T13:02:54.163Z,102700.03
2022-08-09T13:09:10.487Z,102690.91
2022-08-09T13:15:16.170Z,102688.19
2022-08-09T13:22:45.599Z,102700.66
2022-08-09T13:27:54.717Z,102701.72
2022-08-09T13:33:59.777Z,102692.53
2022-08-09T13:41:52.561Z,102691.25
2022-08-09T13:47:16.038Z,102700.00
2022-08-09T13:52:54.372Z,102694.56
2022-08-09T13:58:57.640Z,102697.00
2022-08-09T14:05:02.622Z,102683.38
2022-08-09T14:11:15.851Z,102678.69
2022-08-09T14:17:22.739Z,102683.22
2022-08-09T14:23:40.745Z,102688.34
2022-08-09T14:30:34.905Z,102684.69
2022-08-09T14:36:20.527Z,102689.88
2022-08-09T14:42:30.503Z,102688.94
2022-08-09T14:48:35.863Z,102680.81
2022-08-09T14:54:39.925Z,102696.75
2022-08-09T15:00:47.903Z,102684.69
2022-08-09T15:06:52.528Z,102673.91
2022-08-09T15:12:56.303Z,102666.53
2022-08-09T15:19:05.693Z,102677.38
2022-08-09T15:25:39.004Z,102678.56
2022-08-09T15:31:43.354Z,102679.09
2022-08-09T15:38:10.904Z,102674.59
2022-08-09T15:44:14.250Z,102669.13
2022-08-09T15:50:29.029Z,102667.44
2022-08-09T15:56:34.134Z,102669.44
2022-08-09T16:02:38.215Z,102668.88
2022-08-09T16:08:44.587Z,102665.41
2022-08-09T16:14:54.569Z,102664.63
2022-08-09T16:21:00.362Z,102669.91
2022-08-09T16:27:04.969Z,102658.19
2022-08-09T16:33:10.236Z,102650.72
2022-08-09T16:39:13.803Z,102653.34
2022-08-09T16:45:19.761Z,102650.09
2022-08-09T16:51:24.995Z,102648.88
2022-08-09T16:58:07.988Z,102646.47
2022-08-09T17:03:52.145Z,102656.63
2022-08-09T17:10:01.848Z,102659.84
2022-08-09T17:16:07.966Z,102658.53
2022-08-09T17:22:11.599Z,102665.19
2022-08-09T17:28:18.113Z,102658.94
2022-08-09T17:35:00.803Z,102670.31
2022-08-09T17:40:47.724Z,102670.31
2022-08-09T17:46:55.785Z,102676.47
2022-08-09T17:53:01.222Z,102678.34
2022-08-09T17:59:09.334Z,102683.78
2022-08-09T18:05:16.529Z,102687.59
2022-08-09T18:11:20.831Z,102680.78
2022-08-09T18:18:03.528Z,102691.53
2022-08-09T18:24:12.823Z,102687.25
2022-08-09T18:30:35.326Z,102685.59
2022-08-09T18:36:49.475Z,102690.09
2022-08-09T18:42:54.892Z,102697.56
2022-08-09T18:48:58.454Z,102699.22
2022-08-09T18:55:06.214Z,102707.19
2022-08-09T19:01:18.840Z,102692.81
2022-08-09T19:07:23.254Z,102695.94
2022-08-09T19:13:38.398Z,102700.13
2022-08-09T19:20:00.554Z,102695.31
2022-08-09T19:26:06.232Z,102695.53
2022-08-09T19:32:11.753Z,102692.47
2022-08-09T19:38:17.665Z,102701.84
2022-08-09T19:44:31.372Z,102696.22
2022-08-09T19:50:49.375Z,102702.78
2022-08-09T19:57:00.094Z,102708.38
2022-08-09T20:04:10.570Z,102699.47
2022-08-09T20:09:45.118Z,102698.34
2022-08-09T20:16:35.866Z,102707.25
2022-08-09T20:22:16.497Z,102709.03
2022-08-09T20:28:34.359Z,102700.94
2022-08-09T20:34:50.715Z,102707.56
2022-08-09T20:40:56.071Z,102712.19
2022-08-09T20:47:01.104Z,102716.06
2022-08-09T20:53:21.071Z,102723.38
2022-08-09T21:00:22.229Z,102719.31
2022-08-09T21:05:59.479Z,102726.31
2022-08-09T21:18:21.018Z,102724.13
2022-08-09T21:24:33.564Z,102731.28
2022-08-09T21:30:40.469Z,102735.19
2022-08-09T21:36:55.417Z,102736.28
2022-08-09T21:42:59.720Z,102730.66
2022-08-09T21:49:07.480Z,102738.22
2022-08-09T21:55:14.832Z,102726.72
2022-08-09T22:01:26.076Z,102741.97
2022-08-09T22:07:52.181Z,102737.88
2022-08-09T22:13:56.973Z,102729.09
2022-08-09T22:20:02.857Z,102730.13
2022-08-09T22:26:12.830Z,102732.09
2022-08-09T22:32:30.027Z,102726.78
2022-08-09T22:38:35.132Z,102735.06
2022-08-09T22:44:44.970Z,102729.00
2022-08-09T22:50:52.815Z,102725.25
2022-08-09T22:56:58.771Z,102729.81
2022-08-09T23:03:03.816Z,102730.09
2022-08-09T23:09:16.410Z,102726.63
2022-08-09T23:15:19.942Z,102723.06
2022-08-09T23:21:29.946Z,102714.56
2022-08-09T23:27:36.837Z,102724.88
2022-08-09T23:34:00.594Z,102722.31
2022-08-09T23:40:08.766Z,102723.22
2022-08-09T23:46:12.334Z,102713.28
2022-08-09T23:52:16.164Z,102720.38
2022-08-09T23:58:25.901Z,102720.38
